sensor_id;sensor_type;location;lat;lon;timestamp;pressure;altitude;pressure_sealevel;temperature;humidity
10587;BME280;5341;47.606;7.576;2023-05-07T00:01:17;98595.72;;;22.21;49.25
10587;BME280;5341;47.606;7.576;2023-05-07T00:03:45;98607.13;;;22.18;49.24
10587;BME280;5341;47.606;7.576;2023-05-07T00:06:14;98610.94;;;22.17;49.37
10587;BME280;5341;47.606;7.576;2023-05-07T00:08:41;98612.25;;;22.15;49.27
10587;BME280;5341;47.606;7.576;2023-05-07T00:11:09;98617.97;;;22.13;49.29
10587;BME280;5341;47.606;7.576;2023-05-07T00:13:36;98607.63;;;22.10;49.28
10587;BME280;5341;47.606;7.576;2023-05-07T00:16:04;98614.16;;;22.09;49.36
10587;BME280;5341;47.606;7.576;2023-05-07T00:18:35;98615.50;;;22.07;49.25
10587;BME280;5341;47.606;7.576;2023-05-07T00:21:04;98621.16;;;22.05;49.41
10587;BME280;5341;47.606;7.576;2023-05-07T00:23:35;98626.84;;;22.04;49.44
10587;BME280;5341;47.606;7.576;2023-05-07T00:26:02;98620.84;;;22.02;49.59
10587;BME280;5341;47.606;7.576;2023-05-07T00:28:30;98616.75;;;21.99;49.35
10587;BME280;5341;47.606;7.576;2023-05-07T00:30:57;98618.66;;;21.99;49.52
10587;BME280;5341;47.606;7.576;2023-05-07T00:33:24;98609.94;;;21.97;49.43
10587;BME280;5341;47.606;7.576;2023-05-07T00:35:52;98597.41;;;21.96;49.42
10587;BME280;5341;47.606;7.576;2023-05-07T00:38:22;98593.28;;;21.93;49.35
10587;BME280;5341;47.606;7.576;2023-05-07T00:40:49;98594.63;;;21.90;49.32
10587;BME280;5341;47.606;7.576;2023-05-07T00:43:17;98603.88;;;21.89;49.40
10587;BME280;5341;47.606;7.576;2023-05-07T00:45:45;98602.47;;;21.87;49.54
10587;BME280;5341;47.606;7.576;2023-05-07T00:48:14;98597.31;;;21.85;49.54
10587;BME280;5341;47.606;7.576;2023-05-07T00:50:42;98606.81;;;21.83;49.47
10587;BME280;5341;47.606;7.576;2023-05-07T00:53:10;98610.84;;;21.80;49.61
10587;BME280;5341;47.606;7.576;2023-05-07T00:55:39;98613.03;;;21.78;49.60
10587;BME280;5341;47.606;7.576;2023-05-07T00:58:06;98613.53;;;21.75;49.53
10587;BME280;5341;47.606;7.576;2023-05-07T01:00:34;98606.72;;;21.73;49.52
10587;BME280;5341;47.606;7.576;2023-05-07T01:03:02;98600.72;;;21.71;49.58
10587;BME280;5341;47.606;7.576;2023-05-07T01:05:30;98614.59;;;21.69;49.63
10587;BME280;5341;47.606;7.576;2023-05-07T01:07:59;98606.66;;;21.68;49.54
10587;BME280;5341;47.606;7.576;2023-05-07T01:10:28;98611.53;;;21.65;49.51
10587;BME280;5341;47.606;7.576;2023-05-07T01:12:58;98614.53;;;21.64;49.58
10587;BME280;5341;47.606;7.576;2023-05-07T01:15:26;98609.59;;;21.61;49.54
10587;BME280;5341;47.606;7.576;2023-05-07T01:17:54;98606.31;;;21.59;49.52
10587;BME280;5341;47.606;7.576;2023-05-07T01:20:29;98617.47;;;21.57;49.45
10587;BME280;5341;47.606;7.576;2023-05-07T01:23:00;98611.44;;;21.55;49.61
10587;BME280;5341;47.606;7.576;2023-05-07T01:25:28;98610.06;;;21.53;49.75
10587;BME280;5341;47.606;7.576;2023-05-07T01:27:59;98606.78;;;21.51;49.69
10587;BME280;5341;47.606;7.576;2023-05-07T01:30:30;98607.03;;;21.49;49.43
10587;BME280;5341;47.606;7.576;2023-05-07T01:33:06;98611.66;;;21.49;49.57
10587;BME280;5341;47.606;7.576;2023-05-07T01:35:37;98594.78;;;21.47;49.56
10587;BME280;5341;47.606;7.576;2023-05-07T01:38:07;98591.50;;;21.45;49.51
10587;BME280;5341;47.606;7.576;2023-05-07T01:40:36;98590.91;;;21.43;49.60
10587;BME280;5341;47.606;7.576;2023-05-07T01:43:03;98593.88;;;21.41;49.38
10587;BME280;5341;47.606;7.576;2023-05-07T01:45:34;98591.41;;;21.40;49.54
10587;BME280;5341;47.606;7.576;2023-05-07T01:48:02;98597.94;;;21.39;49.56
10587;BME280;5341;47.606;7.576;2023-05-07T01:50:30;98595.47;;;21.37;49.40
10587;BME280;5341;47.606;7.576;2023-05-07T01:52:58;98597.66;;;21.35;49.44
10587;BME280;5341;47.606;7.576;2023-05-07T01:55:28;98593.53;;;21.32;49.53
10587;BME280;5341;47.606;7.576;2023-05-07T01:57:56;98592.94;;;21.30;49.57
10587;BME280;5341;47.606;7.576;2023-05-07T02:00:24;98601.13;;;21.30;49.37
10587;BME280;5341;47.606;7.576;2023-05-07T02:02:51;98599.72;;;21.28;49.68
10587;BME280;5341;47.606;7.576;2023-05-07T02:05:39;98601.06;;;21.25;49.37
10587;BME280;5341;47.606;7.576;2023-05-07T02:08:14;98598.84;;;21.22;49.46
10587;BME280;5341;47.606;7.576;2023-05-07T02:10:43;98598.03;;;21.22;49.37
10587;BME280;5341;47.606;7.576;2023-05-07T02:13:10;98604.53;;;21.21;49.49
10587;BME280;5341;47.606;7.576;2023-05-07T02:15:38;98594.16;;;21.18;49.43
10587;BME280;5341;47.606;7.576;2023-05-07T02:18:07;98592.50;;;21.17;49.42
10587;BME280;5341;47.606;7.576;2023-05-07T02:20:35;98593.84;;;21.14;49.45
10587;BME280;5341;47.606;7.576;2023-05-07T02:23:05;98596.25;;;21.11;49.40
10587;BME280;5341;47.606;7.576;2023-05-07T02:25:33;98599.22;;;21.09;49.31
10587;BME280;5341;47.606;7.576;2023-05-07T02:28:02;98595.09;;;21.06;49.34
10587;BME280;5341;47.606;7.576;2023-05-07T02:30:49;98592.91;;;21.03;49.39
10587;BME280;5341;47.606;7.576;2023-05-07T02:33:17;98602.13;;;21.02;49.40
10587;BME280;5341;47.606;7.576;2023-05-07T02:35:44;98595.06;;;21.01;49.42
10587;BME280;5341;47.606;7.576;2023-05-07T02:38:13;98600.75;;;21.00;49.36
10587;BME280;5341;47.606;7.576;2023-05-07T02:40:41;98602.09;;;20.97;49.40
10587;BME280;5341;47.606;7.576;2023-05-07T02:43:10;98610.25;;;20.97;49.43
10587;BME280;5341;47.606;7.576;2023-05-07T02:45:40;98597.72;;;20.96;49.41
10587;BME280;5341;47.606;7.576;2023-05-07T02:48:09;98599.84;;;20.94;49.43
10587;BME280;5341;47.606;7.576;2023-05-07T02:50:36;98590.88;;;20.94;49.44
10587;BME280;5341;47.606;7.576;2023-05-07T02:53:04;98596.56;;;20.92;49.39
10587;BME280;5341;47.606;7.576;2023-05-07T02:55:31;98590.56;;;20.90;49.34
10587;BME280;5341;47.606;7.576;2023-05-07T02:57:59;98587.28;;;20.88;49.63
10587;BME280;5341;47.606;7.576;2023-05-07T03:00:28;98582.94;;;20.87;49.44
10587;BME280;5341;47.606;7.576;2023-05-07T03:03:07;98588.63;;;20.86;49.55
10587;BME280;5341;47.606;7.576;2023-05-07T03:05:34;98589.69;;;20.85;49.35
10587;BME280;5341;47.606;7.576;2023-05-07T03:08:02;98593.50;;;20.84;49.36
10587;BME280;5341;47.606;7.576;2023-05-07T03:10:31;98594.53;;;20.83;49.46
10587;BME280;5341;47.606;7.576;2023-05-07T03:12:58;98591.81;;;20.83;49.39
10587;BME280;5341;47.606;7.576;2023-05-07T03:17:55;98601.56;;;20.78;49.47
10587;BME280;5341;47.606;7.576;2023-05-07T03:20:22;98593.66;;;20.77;49.37
10587;BME280;5341;47.606;7.576;2023-05-07T03:22:50;98593.91;;;20.75;49.44
10587;BME280;5341;47.606;7.576;2023-05-07T03:25:17;98593.34;;;20.73;49.39
10587;BME280;5341;47.606;7.576;2023-05-07T03:27:44;98586.28;;;20.72;49.39
10587;BME280;5341;47.606;7.576;2023-05-07T03:30:12;98590.03;;;20.71;49.54
10587;BME280;5341;47.606;7.576;2023-05-07T03:32:40;98584.03;;;20.69;49.52
10587;BME280;5341;47.606;7.576;2023-05-07T03:35:12;98584.88;;;20.70;49.44
10587;BME280;5341;47.606;7.576;2023-05-07T03:37:40;98574.50;;;20.67;49.55
10587;BME280;5341;47.606;7.576;2023-05-07T03:40:09;98581.84;;;20.66;49.50
10587;BME280;5341;47.606;7.576;2023-05-07T03:42:44;98580.19;;;20.65;49.54
10587;BME280;5341;47.606;7.576;2023-05-07T03:45:13;98581.28;;;20.64;49.52
10587;BME280;5341;47.606;7.576;2023-05-07T03:47:45;98585.31;;;20.62;49.50
10587;BME280;5341;47.606;7.576;2023-05-07T03:50:17;98593.72;;;20.60;49.63
10587;BME280;5341;47.606;7.576;2023-05-07T03:52:45;98602.09;;;20.59;49.54
10587;BME280;5341;47.606;7.576;2023-05-07T03:55:15;98600.72;;;20.56;49.53
10587;BME280;5341;47.606;7.576;2023-05-07T03:57:48;98602.59;;;20.56;49.54
10587;BME280;5341;47.606;7.576;2023-05-07T04:00:18;98611.00;;;20.54;49.57
10587;BME280;5341;47.606;7.576;2023-05-07T04:02:46;98623.78;;;20.54;49.53
10587;BME280;5341;47.606;7.576;2023-05-07T04:05:18;98615.88;;;20.52;49.66
10587;BME280;5341;47.606;7.576;2023-05-07T04:07:49;98618.84;;;20.51;49.50
10587;BME280;5341;47.606;7.576;2023-05-07T04:10:21;98616.38;;;20.49;49.59
10587;BME280;5341;47.606;7.576;2023-05-07T04:12:51;98618.28;;;20.48;49.45
10587;BME280;5341;47.606;7.576;2023-05-07T04:15:24;98609.31;;;20.48;49.47
10587;BME280;5341;47.606;7.576;2023-05-07T04:17:51;98617.69;;;20.46;49.59
10587;BME280;5341;47.606;7.576;2023-05-07T04:20:23;98617.13;;;20.44;49.45
10587;BME280;5341;47.606;7.576;2023-05-07T04:22:58;98625.28;;;20.44;49.52
10587;BME280;5341;47.606;7.576;2023-05-07T04:25:25;98631.78;;;20.43;49.69
10587;BME280;5341;47.606;7.576;2023-05-07T04:27:58;98637.22;;;20.43;49.45
10587;BME280;5341;47.606;7.576;2023-05-07T04:30:27;98646.44;;;20.42;49.60
10587;BME280;5341;47.606;7.576;2023-05-07T04:32:54;98651.03;;;20.42;49.49
10587;BME280;5341;47.606;7.576;2023-05-07T04:35:26;98662.13;;;20.40;49.56
10587;BME280;5341;47.606;7.576;2023-05-07T04:37:54;98662.13;;;20.40;49.56
10587;BME280;5341;47.606;7.576;2023-05-07T04:40:21;98661.31;;;20.40;49.54
10587;BME280;5341;47.606;7.576;2023-05-07T04:42:49;98645.00;;;20.40;49.51
10587;BME280;5341;47.606;7.576;2023-05-07T04:45:17;98655.88;;;20.40;49.40
10587;BME280;5341;47.606;7.576;2023-05-07T04:47:46;98662.13;;;20.40;49.59
10587;BME280;5341;47.606;7.576;2023-05-07T04:50:14;98669.47;;;20.40;49.56
10587;BME280;5341;47.606;7.576;2023-05-07T04:52:45;98676.53;;;20.41;49.61
10587;BME280;5341;47.606;7.576;2023-05-07T04:55:13;98681.97;;;20.41;49.64
10587;BME280;5341;47.606;7.576;2023-05-07T04:57:41;98683.88;;;20.40;49.72
10587;BME280;5341;47.606;7.576;2023-05-07T05:00:11;98693.91;;;20.40;49.70
10587;BME280;5341;47.606;7.576;2023-05-07T05:02:42;98695.81;;;20.39;49.73
10587;BME280;5341;47.606;7.576;2023-05-07T05:05:12;98693.09;;;20.39;49.79
10587;BME280;5341;47.606;7.576;2023-05-07T05:07:40;98700.41;;;20.39;49.89
10587;BME280;5341;47.606;7.576;2023-05-07T05:10:09;98694.16;;;20.38;49.75
10587;BME280;5341;47.606;7.576;2023-05-07T05:12:39;98699.59;;;20.38;49.86
10587;BME280;5341;47.606;7.576;2023-05-07T05:15:08;98693.09;;;20.39;50.06
10587;BME280;5341;47.606;7.576;2023-05-07T05:17:36;98691.44;;;20.38;49.98
10587;BME280;5341;47.606;7.576;2023-05-07T05:20:05;98701.22;;;20.39;50.02
10587;BME280;5341;47.606;7.576;2023-05-07T05:22:34;98698.50;;;20.39;49.97
10587;BME280;5341;47.606;7.576;2023-05-07T05:25:01;98692.84;;;20.41;49.98
10587;BME280;5341;47.606;7.576;2023-05-07T05:27:30;98698.25;;;20.41;50.13
10587;BME280;5341;47.606;7.576;2023-05-07T05:29:58;98696.63;;;20.40;50.08
10587;BME280;5341;47.606;7.576;2023-05-07T05:32:27;98694.72;;;20.40;50.15
10587;BME280;5341;47.606;7.576;2023-05-07T05:34:56;98709.63;;;20.38;50.21
10587;BME280;5341;47.606;7.576;2023-05-07T05:37:25;98698.19;;;20.36;50.44
10587;BME280;5341;47.606;7.576;2023-05-07T05:39:53;98703.03;;;20.34;50.55
10587;BME280;5341;47.606;7.576;2023-05-07T05:42:22;98706.00;;;20.32;50.64
10587;BME280;5341;47.606;7.576;2023-05-07T05:44:50;98711.44;;;20.32;50.55
10587;BME280;5341;47.606;7.576;2023-05-07T05:47:18;98711.44;;;20.32;50.65
10587;BME280;5341;47.606;7.576;2023-05-07T05:49:46;98717.09;;;20.31;50.83
10587;BME280;5341;47.606;7.576;2023-05-07T05:52:15;98718.75;;;20.32;50.87
10587;BME280;5341;47.606;7.576;2023-05-07T05:54:43;98709.78;;;20.31;50.88
10587;BME280;5341;47.606;7.576;2023-05-07T05:57:15;98719.56;;;20.32;50.79
10587;BME280;5341;47.606;7.576;2023-05-07T05:59:43;98714.72;;;20.34;50.77
10587;BME280;5341;47.606;7.576;2023-05-07T06:02:14;98709.53;;;20.33;50.76
10587;BME280;5341;47.606;7.576;2023-05-07T06:04:43;98713.88;;;20.34;50.79
10587;BME280;5341;47.606;7.576;2023-05-07T06:07:15;98707.88;;;20.32;50.70
10587;BME280;5341;47.606;7.576;2023-05-07T06:09:42;98704.34;;;20.31;50.81
10587;BME280;5341;47.606;7.576;2023-05-07T06:12:11;98713.31;;;20.32;50.88
10587;BME280;5341;47.606;7.576;2023-05-07T06:14:38;98710.59;;;20.32;50.87
10587;BME280;5341;47.606;7.576;2023-05-07T06:17:06;98706.81;;;20.33;51.01
10587;BME280;5341;47.606;7.576;2023-05-07T06:19:35;98711.16;;;20.34;51.15
10587;BME280;5341;47.606;7.576;2023-05-07T06:22:03;98722.63;;;20.36;51.10
10587;BME280;5341;47.606;7.576;2023-05-07T06:24:33;98715.88;;;20.38;51.10
10587;BME280;5341;47.606;7.576;2023-05-07T06:27:00;98715.63;;;20.40;51.16
10587;BME280;5341;47.606;7.576;2023-05-07T06:29:30;98729.56;;;20.43;51.27
10587;BME280;5341;47.606;7.576;2023-05-07T06:32:06;98722.81;;;20.46;51.22
10587;BME280;5341;47.606;7.576;2023-05-07T06:34:36;98728.84;;;20.48;51.35
10587;BME280;5341;47.606;7.576;2023-05-07T06:37:04;98726.69;;;20.50;51.33
10587;BME280;5341;47.606;7.576;2023-05-07T06:39:46;98720.75;;;20.53;51.45
10587;BME280;5341;47.606;7.576;2023-05-07T06:42:13;98725.94;;;20.55;51.55
10587;BME280;5341;47.606;7.576;2023-05-07T06:44:43;98727.91;;;20.59;51.80
10587;BME280;5341;47.606;7.576;2023-05-07T06:47:13;98729.91;;;20.64;51.84
10587;BME280;5341;47.606;7.576;2023-05-07T06:49:42;98723.13;;;20.66;51.63
10587;BME280;5341;47.606;7.576;2023-05-07T06:52:13;98716.13;;;20.70;51.57
10587;BME280;5341;47.606;7.576;2023-05-07T06:54:41;98708.88;;;20.76;51.89
10587;BME280;5341;47.606;7.576;2023-05-07T06:59:36;98706.56;;;20.85;51.78
10587;BME280;5341;47.606;7.576;2023-05-07T07:02:07;98711.00;;;20.91;51.93
10587;BME280;5341;47.606;7.576;2023-05-07T07:04:35;98707.84;;;20.99;52.04
10587;BME280;5341;47.606;7.576;2023-05-07T07:07:08;98715.00;;;21.05;52.03
10587;BME280;5341;47.606;7.576;2023-05-07T07:09:35;98719.44;;;21.11;51.94
10587;BME280;5341;47.606;7.576;2023-05-07T07:12:04;98715.72;;;21.17;51.90
10587;BME280;5341;47.606;7.576;2023-05-07T07:14:33;98717.69;;;21.22;52.10
10587;BME280;5341;47.606;7.576;2023-05-07T07:17:00;98725.13;;;21.26;51.93
10587;BME280;5341;47.606;7.576;2023-05-07T07:19:28;98719.97;;;21.30;51.84
10587;BME280;5341;47.606;7.576;2023-05-07T07:21:56;98723.88;;;21.34;51.95
10587;BME280;5341;47.606;7.576;2023-05-07T07:24:25;98717.66;;;21.39;51.62
10587;BME280;5341;47.606;7.576;2023-05-07T07:26:59;98718.78;;;21.43;51.54
10587;BME280;5341;47.606;7.576;2023-05-07T07:29:27;98714.22;;;21.48;51.57
10587;BME280;5341;47.606;7.576;2023-05-07T07:31:55;98710.47;;;21.54;51.64
10587;BME280;5341;47.606;7.576;2023-05-07T07:34:23;98717.63;;;21.60;51.75
10587;BME280;5341;47.606;7.576;2023-05-07T07:36:50;98712.25;;;21.65;51.85
10587;BME280;5341;47.606;7.576;2023-05-07T07:39:20;98720.22;;;21.72;52.53
10587;BME280;5341;47.606;7.576;2023-05-07T07:41:52;98713.75;;;21.78;52.37
10587;BME280;5341;47.606;7.576;2023-05-07T07:44:20;98712.72;;;21.84;52.09
10587;BME280;5341;47.606;7.576;2023-05-07T07:46:56;98712.50;;;21.91;51.67
10587;BME280;5341;47.606;7.576;2023-05-07T07:49:26;98721.88;;;22.00;51.58
10587;BME280;5341;47.606;7.576;2023-05-07T07:51:54;98722.00;;;22.10;51.71
10587;BME280;5341;47.606;7.576;2023-05-07T07:54:23;98718.28;;;22.21;51.45
10587;BME280;5341;47.606;7.576;2023-05-07T07:56:54;98713.75;;;22.32;51.49
10587;BME280;5341;47.606;7.576;2023-05-07T07:59:21;98713.03;;;22.42;51.61
10587;BME280;5341;47.606;7.576;2023-05-07T08:01:50;98719.13;;;22.54;51.19
10587;BME280;5341;47.606;7.576;2023-05-07T08:04:19;98722.50;;;22.71;51.09
10587;BME280;5341;47.606;7.576;2023-05-07T08:06:46;98717.19;;;22.87;51.00
10587;BME280;5341;47.606;7.576;2023-05-07T08:09:14;98721.63;;;22.98;51.10
10587;BME280;5341;47.606;7.576;2023-05-07T08:11:42;98723.84;;;23.06;51.29
10587;BME280;5341;47.606;7.576;2023-05-07T08:14:11;98727.16;;;23.13;51.10
10587;BME280;5341;47.606;7.576;2023-05-07T08:16:42;98727.75;;;23.20;50.90
10587;BME280;5341;47.606;7.576;2023-05-07T08:19:09;98729.66;;;23.25;50.77
10587;BME280;5341;47.606;7.576;2023-05-07T08:21:39;98728.03;;;23.24;50.02
10587;BME280;5341;47.606;7.576;2023-05-07T08:24:08;98728.84;;;23.24;50.09
10587;BME280;5341;47.606;7.576;2023-05-07T08:26:35;98732.41;;;23.25;50.95
10587;BME280;5341;47.606;7.576;2023-05-07T08:29:05;98736.22;;;23.24;50.88
10587;BME280;5341;47.606;7.576;2023-05-07T08:31:34;98734.88;;;23.26;50.79
10587;BME280;5341;47.606;7.576;2023-05-07T08:34:04;98735.94;;;23.25;50.66
10587;BME280;5341;47.606;7.576;2023-05-07T08:36:34;98735.94;;;23.25;50.52
10587;BME280;5341;47.606;7.576;2023-05-07T08:39:01;98736.75;;;23.26;50.02
10587;BME280;5341;47.606;7.576;2023-05-07T08:41:30;98745.81;;;23.26;50.37
10587;BME280;5341;47.606;7.576;2023-05-07T08:43:58;98739.50;;;23.26;50.89
10587;BME280;5341;47.606;7.576;2023-05-07T08:46:31;98741.16;;;23.27;50.95
10587;BME280;5341;47.606;7.576;2023-05-07T08:49:00;98738.44;;;23.27;51.14
10587;BME280;5341;47.606;7.576;2023-05-07T08:51:29;98747.44;;;23.27;51.10
10587;BME280;5341;47.606;7.576;2023-05-07T08:54:01;98749.34;;;23.27;50.70
10587;BME280;5341;47.606;7.576;2023-05-07T08:56:31;98748.25;;;23.28;50.76
10587;BME280;5341;47.606;7.576;2023-05-07T08:58:59;98750.44;;;23.31;50.87
10587;BME280;5341;47.606;7.576;2023-05-07T09:01:28;98758.09;;;23.34;50.56
10587;BME280;5341;47.606;7.576;2023-05-07T09:03:57;98762.19;;;23.36;50.64
10587;BME280;5341;47.606;7.576;2023-05-07T09:06:31;98757.06;;;23.40;50.48
10587;BME280;5341;47.606;7.576;2023-05-07T09:09:00;98758.97;;;23.45;50.72
10587;BME280;5341;47.606;7.576;2023-05-07T09:11:32;98752.97;;;23.48;50.85
10587;BME280;5341;47.606;7.576;2023-05-07T09:14:00;98752.75;;;23.54;50.87
10587;BME280;5341;47.606;7.576;2023-05-07T09:16:33;98749.25;;;23.59;50.92
10587;BME280;5341;47.606;7.576;2023-05-07T09:19:01;98750.38;;;23.68;50.75
10587;BME280;5341;47.606;7.576;2023-05-07T09:21:31;98746.59;;;23.79;50.51
10587;BME280;5341;47.606;7.576;2023-05-07T09:24:01;98749.34;;;23.89;50.81
10587;BME280;5341;47.606;7.576;2023-05-07T09:26:35;98750.72;;;23.97;50.62
10587;BME280;5341;47.606;7.576;2023-05-07T09:29:04;98756.78;;;24.14;49.69
10587;BME280;5341;47.606;7.576;2023-05-07T09:31:31;98753.53;;;24.33;49.41
10587;BME280;5341;47.606;7.576;2023-05-07T09:33:59;98756.56;;;24.46;49.65
10587;BME280;5341;47.606;7.576;2023-05-07T09:36:31;98765.88;;;24.55;49.48
10587;BME280;5341;47.606;7.576;2023-05-07T09:38:59;98755.75;;;24.61;49.25
10587;BME280;5341;47.606;7.576;2023-05-07T09:41:28;98759.56;;;24.70;48.97
10587;BME280;5341;47.606;7.576;2023-05-07T09:44:07;98759.28;;;24.82;49.06
10587;BME280;5341;47.606;7.576;2023-05-07T09:46:39;98758.47;;;24.87;49.32
10587;BME280;5341;47.606;7.576;2023-05-07T09:49:21;98768.03;;;24.89;49.13
10587;BME280;5341;47.606;7.576;2023-05-07T09:51:53;98763.94;;;24.87;48.89
10587;BME280;5341;47.606;7.576;2023-05-07T09:54:24;98759.28;;;24.82;48.55
10587;BME280;5341;47.606;7.576;2023-05-07T09:56:54;98767.78;;;24.80;48.70
10587;BME280;5341;47.606;7.576;2023-05-07T09:59:25;98770.53;;;24.75;47.75
10587;BME280;5341;47.606;7.576;2023-05-07T10:01:57;98764.22;;;24.70;47.28
10587;BME280;5341;47.606;7.576;2023-05-07T10:04:26;98771.88;;;24.68;46.93
10587;BME280;5341;47.606;7.576;2023-05-07T10:06:55;98761.75;;;24.68;46.78
10587;BME280;5341;47.606;7.576;2023-05-07T10:09:23;98763.41;;;24.69;46.22
10587;BME280;5341;47.606;7.576;2023-05-07T10:11:53;98764.22;;;24.80;46.76
10587;BME280;5341;47.606;7.576;2023-05-07T10:14:22;98762.84;;;24.93;46.39
10587;BME280;5341;47.606;7.576;2023-05-07T10:16:53;98763.13;;;25.01;46.27
10587;BME280;5341;47.606;7.576;2023-05-07T10:19:22;98771.88;;;25.13;46.21
10587;BME280;5341;47.606;7.576;2023-05-07T10:22:01;98770.19;;;25.18;45.63
10587;BME280;5341;47.606;7.576;2023-05-07T10:24:32;98777.06;;;25.15;45.53
10587;BME280;5341;47.606;7.576;2023-05-07T10:27:07;98764.72;;;25.18;46.00
10587;BME280;5341;47.606;7.576;2023-05-07T10:29:42;98764.44;;;25.29;45.92
10587;BME280;5341;47.606;7.576;2023-05-07T10:32:32;98768.78;;;25.46;44.82
10587;BME280;5341;47.606;7.576;2023-05-07T10:35:03;98766.03;;;25.46;44.79
10587;BME280;5341;47.606;7.576;2023-05-07T10:37:36;98764.66;;;25.48;45.19
10587;BME280;5341;47.606;7.576;2023-05-07T10:40:05;98765.72;;;25.52;45.01
10587;BME280;5341;47.606;7.576;2023-05-07T10:42:34;98760.50;;;25.56;45.34
10587;BME280;5341;47.606;7.576;2023-05-07T10:45:12;98764.34;;;25.55;45.03
10587;BME280;5341;47.606;7.576;2023-05-07T10:48:08;98769.56;;;25.51;45.11
10587;BME280;5341;47.606;7.576;2023-05-07T10:50:36;98771.53;;;25.46;45.45
10587;BME280;5341;47.606;7.576;2023-05-07T10:53:25;98771.81;;;25.39;45.53
10587;BME280;5341;47.606;7.576;2023-05-07T10:56:27;98766.63;;;25.27;45.78
10587;BME280;5341;47.606;7.576;2023-05-07T10:59:34;98756.53;;;25.23;45.93
10587;BME280;5341;47.606;7.576;2023-05-07T11:02:20;98752.16;;;25.11;46.34
10587;BME280;5341;47.606;7.576;2023-05-07T11:05:20;98753.81;;;25.02;46.11
10587;BME280;5341;47.606;7.576;2023-05-07T11:07:55;98755.16;;;24.95;46.26
10587;BME280;5341;47.606;7.576;2023-05-07T11:10:52;98750.50;;;24.95;46.29
10587;BME280;5341;47.606;7.576;2023-05-07T11:13:47;98751.38;;;25.01;46.87
10587;BME280;5341;47.606;7.576;2023-05-07T11:16:37;98758.75;;;25.10;46.68
10587;BME280;5341;47.606;7.576;2023-05-07T11:19:17;98760.91;;;25.19;45.92
10587;BME280;5341;47.606;7.576;2023-05-07T11:22:05;98764.19;;;25.21;45.77
10587;BME280;5341;47.606;7.576;2023-05-07T11:25:04;98774.56;;;25.19;45.77
10587;BME280;5341;47.606;7.576;2023-05-07T11:27:34;98783.09;;;25.22;45.98
10587;BME280;5341;47.606;7.576;2023-05-07T11:30:02;98776.22;;;25.20;46.05
10587;BME280;5341;47.606;7.576;2023-05-07T11:32:31;98774.88;;;25.12;45.86
10587;BME280;5341;47.606;7.576;2023-05-07T11:35:00;98779.56;;;25.01;46.27
10587;BME280;5341;47.606;7.576;2023-05-07T11:37:28;98773.25;;;24.96;46.88
10587;BME280;5341;47.606;7.576;2023-05-07T11:40:03;98775.44;;;24.89;46.84
10587;BME280;5341;47.606;7.576;2023-05-07T11:42:34;98775.44;;;24.83;46.91
10587;BME280;5341;47.606;7.576;2023-05-07T11:45:03;98780.34;;;24.81;46.43
10587;BME280;5341;47.606;7.576;2023-05-07T11:47:31;98774.06;;;24.71;46.15
10587;BME280;5341;47.606;7.576;2023-05-07T11:50:03;98779.81;;;24.69;46.40
10587;BME280;5341;47.606;7.576;2023-05-07T11:52:30;98779.53;;;24.66;46.32
10587;BME280;5341;47.606;7.576;2023-05-07T11:54:59;98785.56;;;24.63;46.59
10587;BME280;5341;47.606;7.576;2023-05-07T11:57:27;98787.47;;;24.57;46.59
10587;BME280;5341;47.606;7.576;2023-05-07T11:59:56;98796.50;;;24.52;46.66
10587;BME280;5341;47.606;7.576;2023-05-07T12:02:24;98800.88;;;24.48;46.89
10587;BME280;5341;47.606;7.576;2023-05-07T12:04:52;98800.03;;;24.43;46.57
10587;BME280;5341;47.606;7.576;2023-05-07T12:07:19;98803.03;;;24.36;47.12
10587;BME280;5341;47.606;7.576;2023-05-07T12:09:47;98816.66;;;24.26;47.86
10587;BME280;5341;47.606;7.576;2023-05-07T12:12:15;98819.09;;;24.12;48.40
10587;BME280;5341;47.606;7.576;2023-05-07T12:14:43;98815.50;;;24.02;48.98
10587;BME280;5341;47.606;7.576;2023-05-07T12:17:13;98816.00;;;23.93;49.35
10587;BME280;5341;47.606;7.576;2023-05-07T12:19:43;98821.72;;;23.87;49.68
10587;BME280;5341;47.606;7.576;2023-05-07T12:22:10;98817.88;;;23.83;49.63
10587;BME280;5341;47.606;7.576;2023-05-07T12:24:44;98809.66;;;23.78;49.99
10587;BME280;5341;47.606;7.576;2023-05-07T12:27:13;98808.31;;;23.75;50.08
10587;BME280;5341;47.606;7.576;2023-05-07T12:29:44;98812.38;;;23.73;50.13
10587;BME280;5341;47.606;7.576;2023-05-07T12:32:15;98814.53;;;23.71;50.08
10587;BME280;5341;47.606;7.576;2023-05-07T12:34:43;98820.53;;;23.67;50.13
10587;BME280;5341;47.606;7.576;2023-05-07T12:37:11;98827.63;;;23.63;50.62
10587;BME280;5341;47.606;7.576;2023-05-07T12:39:44;98830.06;;;23.60;50.76
10587;BME280;5341;47.606;7.576;2023-05-07T12:42:15;98825.09;;;23.57;51.03
10587;BME280;5341;47.606;7.576;2023-05-07T12:44:45;98830.81;;;23.55;51.27
10587;BME280;5341;47.606;7.576;2023-05-07T12:47:15;98830.28;;;23.53;51.56
10587;BME280;5341;47.606;7.576;2023-05-07T12:49:43;98828.63;;;23.52;51.91
10587;BME280;5341;47.606;7.576;2023-05-07T12:52:11;98826.41;;;23.49;51.62
10587;BME280;5341;47.606;7.576;2023-05-07T12:54:39;98828.56;;;23.42;51.75
10587;BME280;5341;47.606;7.576;2023-05-07T12:57:07;98818.44;;;23.37;51.53
10587;BME280;5341;47.606;7.576;2023-05-07T12:59:35;98820.88;;;23.34;51.94
10587;BME280;5341;47.606;7.576;2023-05-07T13:02:03;98823.59;;;23.34;52.06
10587;BME280;5341;47.606;7.576;2023-05-07T13:04:32;98814.84;;;23.32;52.11
10587;BME280;5341;47.606;7.576;2023-05-07T13:07:00;98814.03;;;23.31;52.15
10587;BME280;5341;47.606;7.576;2023-05-07T13:09:28;98808.31;;;23.33;52.74
10587;BME280;5341;47.606;7.576;2023-05-07T13:11:55;98810.25;;;23.37;53.03
10587;BME280;5341;47.606;7.576;2023-05-07T13:14:25;98804.28;;;23.46;53.27
10587;BME280;5341;47.606;7.576;2023-05-07T13:16:53;98796.69;;;23.53;52.74
10587;BME280;5341;47.606;7.576;2023-05-07T13:19:20;98791.56;;;23.61;52.37
10587;BME280;5341;47.606;7.576;2023-05-07T13:21:49;98792.16;;;23.68;52.46
10587;BME280;5341;47.606;7.576;2023-05-07T13:24:16;98793.56;;;23.76;52.62
10587;BME280;5341;47.606;7.576;2023-05-07T13:26:44;98783.22;;;23.88;53.30
10587;BME280;5341;47.606;7.576;2023-05-07T13:29:11;98772.59;;;24.02;53.00
10587;BME280;5341;47.606;7.576;2023-05-07T13:31:38;98769.34;;;24.15;52.64